createdAt,value
2022-10-20T00:00:32.277Z,98.10
2022-10-20T00:02:59.164Z,98.00
2022-10-20T00:05:25.920Z,98.40
2022-10-20T00:07:52.620Z,98.40
2022-10-20T00:10:19.358Z,98.20
2022-10-20T00:12:46.054Z,98.20
2022-10-20T00:15:12.798Z,98.20
2022-10-20T00:17:39.618Z,98.20
2022-10-20T00:20:06.732Z,98.30
2022-10-20T00:22:33.647Z,98.20
2022-10-20T00:25:00.754Z,98.00
2022-10-20T00:27:27.458Z,98.00
2022-10-20T00:29:54.178Z,98.20
2022-10-20T00:32:21.037Z,98.20
2022-10-20T00:34:47.745Z,98.30
2022-10-20T00:37:14.486Z,98.20
2022-10-20T00:39:41.274Z,98.00
2022-10-20T00:42:08.089Z,98.20
2022-10-20T00:44:46.889Z,98.00
2022-10-20T00:47:16.690Z,98.00
2022-10-20T00:49:43.772Z,98.00
2022-10-20T00:52:11.121Z,97.70
2022-10-20T00:54:37.971Z,97.80
2022-10-20T00:57:04.909Z,98.20
2022-10-20T00:59:33.746Z,98.10
2022-10-20T01:02:01.402Z,98.20
2022-10-20T01:04:29.451Z,98.20
2022-10-20T01:06:56.415Z,98.00
2022-10-20T01:09:23.262Z,98.20
2022-10-20T01:11:49.941Z,98.20
2022-10-20T01:14:40.063Z,98.20
2022-10-20T01:17:12.110Z,98.10
2022-10-20T01:19:58.445Z,98.10
2022-10-20T01:22:25.123Z,98.00
2022-10-20T01:25:06.983Z,98.20
2022-10-20T01:27:36.394Z,97.90
2022-10-20T01:30:03.292Z,98.10
2022-10-20T01:32:42.194Z,97.70
2022-10-20T01:35:09.483Z,98.20
2022-10-20T01:37:48.742Z,98.00
2022-10-20T01:43:09.022Z,98.10
2022-10-20T01:45:37.192Z,97.90
2022-10-20T01:48:05.567Z,97.90
2022-10-20T01:50:34.438Z,98.10
2022-10-20T01:53:01.852Z,98.10
2022-10-20T01:55:28.677Z,98.20
2022-10-20T01:58:04.552Z,97.90
2022-10-20T02:00:31.264Z,98.20
2022-10-20T02:03:07.238Z,98.10
2022-10-20T02:05:33.916Z,98.10
2022-10-20T02:08:06.650Z,98.00
2022-10-20T02:10:38.859Z,98.10
2022-10-20T02:13:07.255Z,98.20
2022-10-20T02:15:36.282Z,98.10
2022-10-20T02:18:04.656Z,98.10
2022-10-20T02:20:31.958Z,98.00
2022-10-20T02:22:59.832Z,98.00
2022-10-20T02:25:28.087Z,98.00
2022-10-20T02:27:56.332Z,98.00
2022-10-20T02:30:23.155Z,98.00
2022-10-20T02:32:52.636Z,97.80
2022-10-20T02:35:21.179Z,97.80
2022-10-20T02:37:47.976Z,98.00
2022-10-20T02:40:15.261Z,97.90
2022-10-20T02:42:43.516Z,98.00
2022-10-20T02:45:10.427Z,98.00
2022-10-20T02:47:37.446Z,98.00
2022-10-20T02:50:04.875Z,97.80
2022-10-20T02:52:31.771Z,97.90
2022-10-20T02:54:58.522Z,97.70
2022-10-20T02:57:25.375Z,97.90
2022-10-20T02:59:52.444Z,97.90
2022-10-20T03:02:19.174Z,97.80
2022-10-20T03:04:45.932Z,97.80
2022-10-20T03:07:12.617Z,98.00
2022-10-20T03:09:39.392Z,97.90
2022-10-20T03:12:06.421Z,97.80
2022-10-20T03:14:33.150Z,97.70
2022-10-20T03:16:59.857Z,97.70
2022-10-20T03:19:27.037Z,98.00
2022-10-20T03:21:53.745Z,98.00
2022-10-20T03:24:20.474Z,97.70
2022-10-20T03:26:47.278Z,97.60
2022-10-20T03:29:13.986Z,97.90
2022-10-20T03:31:40.691Z,97.80
2022-10-20T03:34:07.607Z,97.80
2022-10-20T03:36:34.356Z,97.80
2022-10-20T03:39:01.075Z,97.90
2022-10-20T03:41:27.837Z,98.00
2022-10-20T03:43:54.646Z,97.80
2022-10-20T03:46:21.358Z,97.70
2022-10-20T03:48:48.190Z,97.70
2022-10-20T03:51:15.000Z,97.80
2022-10-20T03:53:41.699Z,97.60
2022-10-20T03:56:14.487Z,97.50
2022-10-20T03:58:41.225Z,97.70
2022-10-20T04:01:09.397Z,97.80
2022-10-20T04:03:36.270Z,97.70
2022-10-20T04:06:03.135Z,97.60
2022-10-20T04:08:29.854Z,97.70
2022-10-20T04:10:57.469Z,97.80
2022-10-20T04:13:24.295Z,97.60
2022-10-20T04:15:51.027Z,97.50
2022-10-20T04:18:17.852Z,97.70
2022-10-20T04:20:44.829Z,97.80
2022-10-20T04:23:11.737Z,97.60
2022-10-20T04:25:45.632Z,97.70
2022-10-20T04:28:13.046Z,97.60
2022-10-20T04:30:39.849Z,97.50
2022-10-20T04:33:06.649Z,97.50
2022-10-20T04:35:33.623Z,97.50
2022-10-20T04:38:00.487Z,97.50
2022-10-20T04:40:27.267Z,97.40
2022-10-20T04:42:54.133Z,97.30
2022-10-20T04:45:21.106Z,97.40
2022-10-20T04:47:47.828Z,97.40
2022-10-20T04:50:14.617Z,97.40
2022-10-20T04:52:41.361Z,97.20
2022-10-20T04:55:08.438Z,97.30
2022-10-20T04:57:35.470Z,97.30
2022-10-20T05:00:02.491Z,97.30
2022-10-20T05:02:29.896Z,97.30
2022-10-20T05:04:56.585Z,97.30
2022-10-20T05:07:23.325Z,97.20
2022-10-20T05:09:58.594Z,97.20
2022-10-20T05:12:34.069Z,97.10
2022-10-20T05:15:01.084Z,97.30
2022-10-20T05:17:30.787Z,97.20
2022-10-20T05:19:57.496Z,97.30
2022-10-20T05:22:24.361Z,97.20
2022-10-20T05:24:51.095Z,97.20
2022-10-20T05:27:17.792Z,97.20
2022-10-20T05:29:44.628Z,97.30
2022-10-20T05:32:11.332Z,97.20
2022-10-20T05:34:39.047Z,97.20
2022-10-20T05:37:05.814Z,97.20
2022-10-20T05:39:32.519Z,97.30
2022-10-20T05:41:59.199Z,97.30
2022-10-20T05:44:26.039Z,97.20
2022-10-20T05:46:52.745Z,97.00
2022-10-20T05:49:19.450Z,97.20
2022-10-20T05:51:46.896Z,97.20
2022-10-20T05:54:14.220Z,97.50
2022-10-20T05:56:41.279Z,97.20
2022-10-20T05:59:08.362Z,97.40
2022-10-20T06:01:50.394Z,97.20
2022-10-20T06:04:18.902Z,97.10
2022-10-20T06:06:45.702Z,97.20
2022-10-20T06:09:12.685Z,97.20
2022-10-20T06:11:39.880Z,97.40
2022-10-20T06:14:07.537Z,97.00
2022-10-20T06:16:34.325Z,97.30
2022-10-20T06:19:01.153Z,97.10
2022-10-20T06:21:29.236Z,97.10
2022-10-20T06:23:57.743Z,97.20
2022-10-20T06:26:25.423Z,97.20
2022-10-20T06:28:59.833Z,97.20
2022-10-20T06:31:30.946Z,96.90
2022-10-20T06:33:58.093Z,97.00
2022-10-20T06:36:25.537Z,97.00
2022-10-20T06:38:53.432Z,97.20
2022-10-20T06:41:20.252Z,96.80
2022-10-20T06:43:47.178Z,96.90
2022-10-20T06:46:15.058Z,97.10
2022-10-20T06:48:41.867Z,97.10
2022-10-20T06:51:13.192Z,97.20
2022-10-20T06:53:44.041Z,97.20
2022-10-20T06:56:14.748Z,97.00
2022-10-20T06:58:42.400Z,97.20
2022-10-20T07:01:11.703Z,96.90
2022-10-20T07:03:38.697Z,97.20
2022-10-20T07:06:06.244Z,97.10
2022-10-20T07:08:34.152Z,97.00
2022-10-20T07:11:12.710Z,97.00
2022-10-20T07:13:39.744Z,96.90
2022-10-20T07:16:07.353Z,97.00
2022-10-20T07:18:35.674Z,96.90
2022-10-20T07:21:03.910Z,96.90
2022-10-20T07:23:31.310Z,97.20
2022-10-20T07:26:27.421Z,97.00
2022-10-20T07:28:56.092Z,97.10
2022-10-20T07:31:23.990Z,97.00
2022-10-20T07:34:07.126Z,97.00
2022-10-20T07:36:38.312Z,97.10
2022-10-20T07:39:05.563Z,96.90
2022-10-20T07:41:33.163Z,97.20
2022-10-20T07:43:59.908Z,97.20
2022-10-20T07:46:26.764Z,97.20
2022-10-20T07:48:53.564Z,97.40
2022-10-20T07:51:26.778Z,97.30
2022-10-20T07:53:58.122Z,97.20
2022-10-20T07:56:46.200Z,97.30
2022-10-20T07:59:13.397Z,97.40
2022-10-20T08:01:40.414Z,97.30
2022-10-20T08:04:07.411Z,97.30
2022-10-20T08:06:34.271Z,97.30
2022-10-20T08:09:01.116Z,97.20
2022-10-20T08:11:27.914Z,97.30
2022-10-20T08:13:54.625Z,97.40
2022-10-20T08:16:33.989Z,97.40
2022-10-20T08:19:18.588Z,97.60
2022-10-20T08:21:45.290Z,97.60
2022-10-20T08:24:12.037Z,97.60
2022-10-20T08:26:38.703Z,97.70
2022-10-20T08:29:05.472Z,97.60
2022-10-20T08:31:32.304Z,97.70
2022-10-20T08:33:59.801Z,97.70
2022-10-20T08:36:28.238Z,97.70
2022-10-20T08:38:56.519Z,97.50
2022-10-20T08:41:34.451Z,97.70
2022-10-20T08:44:03.293Z,97.70
2022-10-20T08:46:32.253Z,97.60
2022-10-20T08:48:59.233Z,97.50
2022-10-20T08:51:28.735Z,97.60
2022-10-20T08:53:56.775Z,97.70
2022-10-20T08:56:24.759Z,97.40
2022-10-20T08:58:51.665Z,97.50
2022-10-20T09:01:18.580Z,97.60
2022-10-20T09:03:45.578Z,97.40
2022-10-20T09:06:16.544Z,97.60
2022-10-20T09:08:43.666Z,97.50
2022-10-20T09:11:24.099Z,97.50
2022-10-20T09:13:50.843Z,97.80
2022-10-20T09:16:41.659Z,97.50
2022-10-20T09:19:17.098Z,97.40
2022-10-20T09:21:44.532Z,97.50
2022-10-20T09:24:11.301Z,97.60
2022-10-20T09:26:58.075Z,97.50
2022-10-20T09:32:56.304Z,97.50
2022-10-20T09:35:18.799Z,97.60
2022-10-20T09:37:50.772Z,97.60
2022-10-20T09:40:18.093Z,97.60
2022-10-20T09:42:53.927Z,97.60
2022-10-20T09:45:28.875Z,97.40
2022-10-20T09:47:59.049Z,97.40
2022-10-20T09:50:31.085Z,97.50
2022-10-20T09:52:59.306Z,97.50
2022-10-20T09:55:28.945Z,97.60
2022-10-20T09:57:56.659Z,97.50
2022-10-20T10:00:43.319Z,97.40
2022-10-20T10:03:21.495Z,97.60
2022-10-20T10:05:55.854Z,97.50
2022-10-20T10:08:24.262Z,97.70
2022-10-20T10:11:04.336Z,97.80
2022-10-20T10:13:37.577Z,97.60
2022-10-20T10:16:06.357Z,97.60
2022-10-20T10:18:34.462Z,97.50
2022-10-20T10:21:11.835Z,97.90
2022-10-20T10:24:11.057Z,97.90
2022-10-20T10:26:37.928Z,97.80
2022-10-20T10:29:04.987Z,97.80
2022-10-20T10:31:34.712Z,97.80
2022-10-20T10:34:07.147Z,97.70
2022-10-20T10:36:35.572Z,97.70
2022-10-20T10:39:03.971Z,97.60
2022-10-20T10:41:49.231Z,97.80
2022-10-20T10:44:24.539Z,97.80
2022-10-20T10:47:03.205Z,97.70
2022-10-20T10:49:39.821Z,97.80
2022-10-20T10:52:23.213Z,97.70
2022-10-20T10:54:58.911Z,98.00
2022-10-20T10:57:27.222Z,97.70
2022-10-20T10:59:55.419Z,97.80
2022-10-20T11:02:25.648Z,97.90
2022-10-20T11:04:58.239Z,97.70
2022-10-20T11:07:38.005Z,97.80
2022-10-20T11:10:11.076Z,98.00
2022-10-20T11:12:37.757Z,97.80
2022-10-20T11:15:24.063Z,98.00
2022-10-20T11:17:59.112Z,97.90
2022-10-20T11:20:44.386Z,97.70
2022-10-20T11:23:25.729Z,98.00
2022-10-20T11:25:54.243Z,97.80
2022-10-20T11:28:23.755Z,97.80
2022-10-20T11:30:51.045Z,97.70
2022-10-20T11:33:23.390Z,97.90
2022-10-20T11:36:09.212Z,98.00
2022-10-20T11:38:39.053Z,97.80
2022-10-20T11:41:17.526Z,97.90
2022-10-20T11:43:50.363Z,97.80
2022-10-20T11:46:30.470Z,97.70
2022-10-20T11:49:00.318Z,97.90
2022-10-20T11:51:30.013Z,97.80
2022-10-20T11:54:14.893Z,97.90
2022-10-20T11:56:49.747Z,97.60
2022-10-20T11:59:35.187Z,97.90
2022-10-20T12:02:20.641Z,97.90
2022-10-20T12:04:56.324Z,97.90
2022-10-20T12:07:41.480Z,97.90
2022-10-20T12:10:26.909Z,98.00
2022-10-20T12:13:01.941Z,98.00
2022-10-20T12:15:28.779Z,97.70
2022-10-20T12:17:59.595Z,97.90
2022-10-20T12:20:26.278Z,98.00
2022-10-20T12:22:54.223Z,98.00
2022-10-20T12:25:26.834Z,98.00
2022-10-20T12:28:12.290Z,98.10
2022-10-20T12:30:38.970Z,98.00
2022-10-20T12:33:15.872Z,97.90
2022-10-20T12:35:57.666Z,97.90
2022-10-20T12:38:24.672Z,97.90
2022-10-20T12:40:57.935Z,98.10
2022-10-20T12:43:26.559Z,98.00
2022-10-20T12:45:56.765Z,97.80
2022-10-20T12:48:24.174Z,98.00
2022-10-20T12:50:51.208Z,98.00
2022-10-20T12:53:17.977Z,98.00
2022-10-20T12:55:46.592Z,97.90
2022-10-20T12:58:19.449Z,98.10
2022-10-20T13:00:46.221Z,98.00
2022-10-20T13:03:31.710Z,98.00
2022-10-20T13:06:01.826Z,98.00
2022-10-20T13:08:33.188Z,97.90
2022-10-20T13:11:18.702Z,98.00
2022-10-20T13:13:53.585Z,98.20
2022-10-20T13:16:21.635Z,98.10
2022-10-20T13:18:50.524Z,98.00
2022-10-20T13:21:27.029Z,98.00
2022-10-20T13:24:17.104Z,98.10
2022-10-20T13:26:43.920Z,98.10
2022-10-20T13:29:12.539Z,98.00
2022-10-20T13:31:46.525Z,97.90
2022-10-20T13:34:13.237Z,97.80
2022-10-20T13:36:46.093Z,98.00
2022-10-20T13:39:31.231Z,97.90
2022-10-20T13:42:10.110Z,98.00
2022-10-20T13:44:36.778Z,98.00
2022-10-20T13:47:28.165Z,98.10
2022-10-20T13:49:59.656Z,98.20
2022-10-20T13:52:28.488Z,98.10
2022-10-20T13:54:56.604Z,98.20
2022-10-20T13:57:30.805Z,98.00
2022-10-20T14:00:03.368Z,98.20
2022-10-20T14:02:31.670Z,98.20
2022-10-20T14:05:01.936Z,98.20
2022-10-20T14:07:35.353Z,98.20
2022-10-20T14:10:02.078Z,98.00
2022-10-20T14:12:28.888Z,98.20
2022-10-20T14:15:01.488Z,98.20
2022-10-20T14:17:28.875Z,98.10
2022-10-20T14:20:14.367Z,98.10
2022-10-20T14:22:43.546Z,98.10
2022-10-20T14:25:11.064Z,98.10
2022-10-20T14:27:38.448Z,98.20
2022-10-20T14:30:06.253Z,98.20
2022-10-20T14:32:35.420Z,98.20
2022-10-20T14:35:04.172Z,98.20
2022-10-20T14:37:35.058Z,98.10
2022-10-20T14:40:03.751Z,98.00
2022-10-20T14:42:31.518Z,98.20
2022-10-20T14:44:59.167Z,98.20
2022-10-20T14:47:29.123Z,98.10
2022-10-20T14:49:55.920Z,98.20
2022-10-20T14:52:23.686Z,98.20
2022-10-20T14:54:51.538Z,98.20
2022-10-20T14:57:18.659Z,98.20
2022-10-20T14:59:51.368Z,98.10
2022-10-20T15:02:20.676Z,98.20
2022-10-20T15:04:48.554Z,98.20
2022-10-20T15:07:17.262Z,98.30
2022-10-20T15:09:45.397Z,98.30
2022-10-20T15:12:19.542Z,98.30
2022-10-20T15:14:48.078Z,98.10
2022-10-20T15:17:30.865Z,98.10
2022-10-20T15:19:57.591Z,98.10
2022-10-20T15:22:24.305Z,98.00
2022-10-20T15:24:51.230Z,98.10
2022-10-20T15:27:18.055Z,98.40
2022-10-20T15:29:49.453Z,98.10
2022-10-20T15:32:16.284Z,98.20
2022-10-20T15:34:42.994Z,98.30
2022-10-20T15:37:09.710Z,98.30
2022-10-20T15:39:36.831Z,98.40
2022-10-20T15:42:05.541Z,98.30
2022-10-20T15:44:32.329Z,98.30
2022-10-20T15:46:59.101Z,98.20
2022-10-20T15:49:25.880Z,98.30
2022-10-20T15:51:52.681Z,98.20
2022-10-20T15:54:20.675Z,98.20
2022-10-20T15:56:47.556Z,98.20
2022-10-20T15:59:14.273Z,98.10
2022-10-20T16:01:41.176Z,98.20
2022-10-20T16:04:18.819Z,98.10
2022-10-20T16:06:45.599Z,98.20
2022-10-20T16:09:15.765Z,98.20
2022-10-20T16:11:43.459Z,98.40
2022-10-20T16:14:10.780Z,98.40
2022-10-20T16:16:37.517Z,98.30
2022-10-20T16:19:04.585Z,98.30
2022-10-20T16:21:31.400Z,98.30
2022-10-20T16:23:58.408Z,98.30
2022-10-20T16:26:25.101Z,98.20
2022-10-20T16:28:51.846Z,98.30
2022-10-20T16:31:19.057Z,98.20
2022-10-20T16:33:45.864Z,98.40
2022-10-20T16:36:15.041Z,98.40
2022-10-20T16:38:42.204Z,98.30
2022-10-20T16:41:12.868Z,98.50
2022-10-20T16:43:40.498Z,98.30
2022-10-20T16:46:07.811Z,98.30
2022-10-20T16:48:36.951Z,98.30
2022-10-20T16:51:08.241Z,98.50
2022-10-20T16:53:34.990Z,98.40
2022-10-20T16:56:03.623Z,98.50
2022-10-20T16:58:30.594Z,98.40
2022-10-20T17:01:01.837Z,98.50
2022-10-20T17:03:30.146Z,98.30
2022-10-20T17:05:57.949Z,98.40
2022-10-20T17:08:24.984Z,98.30
2022-10-20T17:11:02.331Z,98.10
2022-10-20T17:13:29.814Z,98.40
2022-10-20T17:15:56.944Z,98.50
2022-10-20T17:18:24.144Z,98.50
2022-10-20T17:20:54.411Z,98.50
2022-10-20T17:23:24.040Z,98.50
2022-10-20T17:25:51.899Z,98.50
2022-10-20T17:28:19.015Z,98.40
2022-10-20T17:30:46.992Z,98.40
2022-10-20T17:33:14.309Z,98.50
2022-10-20T17:35:41.063Z,98.50
2022-10-20T17:38:07.895Z,98.60
2022-10-20T17:40:37.875Z,98.50
2022-10-20T17:43:04.673Z,98.40
2022-10-20T17:45:34.947Z,98.50
2022-10-20T17:48:04.469Z,98.40
2022-10-20T17:50:31.221Z,98.40
2022-10-20T17:53:01.461Z,98.20
2022-10-20T17:55:28.724Z,98.30
2022-10-20T17:57:55.705Z,98.30
2022-10-20T18:00:43.846Z,98.50
2022-10-20T18:03:10.202Z,98.50
2022-10-20T18:05:37.848Z,98.40
2022-10-20T18:08:04.606Z,98.40
2022-10-20T18:10:33.548Z,98.40
2022-10-20T18:13:01.904Z,98.60
2022-10-20T18:15:28.614Z,98.60
2022-10-20T18:17:55.598Z,98.40
2022-10-20T18:20:22.278Z,98.60
2022-10-20T18:22:48.980Z,98.60
2022-10-20T18:25:15.863Z,98.40
2022-10-20T18:27:42.595Z,98.40
2022-10-20T18:30:09.643Z,98.50
2022-10-20T18:32:36.961Z,98.60
2022-10-20T18:35:03.918Z,98.50
2022-10-20T18:37:30.648Z,98.50
2022-10-20T18:39:57.459Z,98.70
2022-10-20T18:42:24.221Z,98.60
2022-10-20T18:44:50.915Z,98.40
2022-10-20T18:47:17.690Z,98.40
2022-10-20T18:49:44.414Z,98.60
2022-10-20T18:52:11.109Z,98.60
2022-10-20T18:54:38.091Z,98.30
2022-10-20T18:57:04.986Z,98.40
2022-10-20T18:59:31.701Z,98.50
2022-10-20T19:01:58.457Z,98.40
2022-10-20T19:04:25.181Z,98.50
2022-10-20T19:06:52.226Z,98.40
2022-10-20T19:09:20.310Z,98.60
2022-10-20T19:11:47.669Z,98.50
2022-10-20T19:14:14.895Z,98.40
2022-10-20T19:16:42.840Z,98.50
2022-10-20T19:19:09.628Z,98.60
2022-10-20T19:21:36.772Z,98.30
2022-10-20T19:24:12.124Z,98.50
2022-10-20T19:26:40.990Z,98.50
2022-10-20T19:29:12.223Z,98.50
2022-10-20T19:31:40.797Z,98.40
2022-10-20T19:34:15.560Z,98.70
2022-10-20T19:36:42.539Z,98.80
2022-10-20T19:39:10.989Z,98.50
2022-10-20T19:41:37.906Z,98.60
2022-10-20T19:44:04.858Z,98.60
2022-10-20T19:46:31.753Z,98.70
2022-10-20T19:48:58.977Z,98.60
2022-10-20T19:51:25.773Z,98.40
2022-10-20T19:53:52.491Z,98.70
2022-10-20T19:56:19.428Z,98.60
2022-10-20T19:58:46.814Z,98.50
2022-10-20T20:01:14.053Z,98.50
2022-10-20T20:03:40.953Z,98.60
2022-10-20T20:06:16.152Z,98.60
2022-10-20T20:08:44.811Z,98.50
2022-10-20T20:11:13.685Z,98.60
2022-10-20T20:13:40.382Z,98.60
2022-10-20T20:16:08.316Z,98.60
2022-10-20T20:18:35.669Z,98.50
2022-10-20T20:21:03.905Z,98.50
2022-10-20T20:23:41.310Z,98.70
2022-10-20T20:26:17.762Z,98.60
2022-10-20T20:28:44.503Z,98.40
2022-10-20T20:31:11.957Z,98.50
2022-10-20T20:33:38.737Z,98.50
2022-10-20T20:36:06.940Z,98.50
2022-10-20T20:38:34.778Z,98.80
2022-10-20T20:41:02.593Z,98.60
2022-10-20T20:43:29.467Z,98.50
2022-10-20T20:46:02.085Z,98.50
2022-10-20T20:48:28.806Z,98.50
2022-10-20T20:50:55.983Z,98.50
2022-10-20T20:53:23.492Z,98.50
2022-10-20T20:55:57.938Z,98.40
2022-10-20T20:58:25.093Z,98.60
2022-10-20T21:00:52.282Z,98.50
2022-10-20T21:03:19.646Z,98.50
2022-10-20T21:05:46.352Z,98.50
2022-10-20T21:08:13.130Z,98.50
2022-10-20T21:10:39.945Z,98.70
2022-10-20T21:13:06.705Z,98.50
2022-10-20T21:15:33.413Z,98.50
2022-10-20T21:18:00.191Z,98.60
2022-10-20T21:20:26.889Z,98.60
2022-10-20T21:22:53.588Z,98.50
2022-10-20T21:25:20.368Z,98.60
2022-10-20T21:27:47.112Z,98.60
2022-10-20T21:30:13.834Z,98.60
2022-10-20T21:32:40.891Z,98.60
2022-10-20T21:35:07.834Z,98.50
2022-10-20T21:37:34.552Z,98.80
2022-10-20T21:40:01.353Z,98.60
2022-10-20T21:42:28.073Z,98.70
2022-10-20T21:44:54.739Z,98.60
2022-10-20T21:47:21.577Z,98.60
2022-10-20T21:49:48.281Z,98.70
2022-10-20T21:52:15.017Z,98.60
2022-10-20T21:54:41.919Z,98.80
2022-10-20T21:57:08.624Z,98.70
2022-10-20T21:59:35.308Z,98.50
2022-10-20T22:02:02.131Z,98.50
2022-10-20T22:04:29.586Z,98.50
2022-10-20T22:06:57.146Z,98.60
2022-10-20T22:09:24.097Z,98.50
2022-10-20T22:11:52.283Z,98.60
2022-10-20T22:14:19.238Z,98.70
2022-10-20T22:16:45.981Z,98.60
2022-10-20T22:19:14.168Z,98.70
2022-10-20T22:21:41.814Z,98.60
2022-10-20T22:24:08.919Z,98.50
2022-10-20T22:26:35.929Z,98.70
2022-10-20T22:29:03.305Z,98.60
2022-10-20T22:31:30.117Z,98.40
2022-10-20T22:33:57.708Z,98.60
2022-10-20T22:36:24.873Z,98.60
2022-10-20T22:38:51.754Z,98.60
2022-10-20T22:41:18.720Z,98.40
2022-10-20T22:43:45.553Z,98.40
2022-10-20T22:46:12.380Z,98.60
2022-10-20T22:48:39.205Z,98.60
2022-10-20T22:51:06.879Z,98.50
2022-10-20T22:53:33.803Z,98.60
2022-10-20T22:56:08.437Z,98.70
2022-10-20T22:58:35.318Z,98.50
2022-10-20T23:01:09.421Z,98.70
2022-10-20T23:03:36.707Z,98.70
2022-10-20T23:06:13.079Z,98.60
2022-10-20T23:08:41.003Z,98.70
2022-10-20T23:11:07.780Z,98.60
2022-10-20T23:13:34.527Z,98.50
2022-10-20T23:16:01.360Z,98.50
2022-10-20T23:18:28.488Z,98.60
2022-10-20T23:20:57.415Z,98.60
2022-10-20T23:23:25.295Z,98.60
2022-10-20T23:25:52.219Z,98.60
2022-10-20T23:28:19.075Z,98.60
2022-10-20T23:30:46.027Z,98.60
2022-10-20T23:33:12.714Z,98.50
2022-10-20T23:35:39.645Z,98.60
2022-10-20T23:38:07.468Z,98.70
2022-10-20T23:40:34.152Z,98.60
2022-10-20T23:43:00.855Z,98.70
2022-10-20T23:45:27.558Z,98.70
2022-10-20T23:47:54.276Z,98.60
2022-10-20T23:50:23.384Z,98.50
2022-10-20T23:52:51.176Z,98.60
2022-10-20T23:55:17.902Z,98.40
2022-10-20T23:57:44.606Z,98.50
